Time;durP1;ratioP1;P1;durP2;ratioP2;P2;SDS_P1;SDS_P2;PMS_P1;PMS_P2;Temp;Humidity;BMP_temperature;BMP_pressure;BME280_temperature;BME280_humidity;BME280_pressure;Samples;Min_cycle;Max_cycle;Signal;HPM_P1;HPM_P2
2022/11/23 00:01:36;;;;;;;20.70;15.70;;;;;;;6.02;100.00;99564.31;4895863;29;20052;-80
2022/11/23 00:04:07;;;;;;;23.55;16.42;;;;;;;6.04;100.00;99575.66;4896179;29;20060;-81
2022/11/23 00:06:36;;;;;;;24.45;16.75;;;;;;;6.04;100.00;99562.56;4874203;29;20041;-81
2022/11/23 00:09:06;;;;;;;23.52;16.65;;;;;;;6.07;100.00;99563.44;4886840;29;20063;-81
2022/11/23 00:11:35;;;;;;;23.33;17.25;;;;;;;6.07;100.00;99563.44;4895985;29;20482;-81
2022/11/23 00:14:04;;;;;;;19.60;15.70;;;;;;;6.06;100.00;99557.34;4872223;29;20052;-81
2022/11/23 00:16:32;;;;;;;23.27;17.45;;;;;;;6.07;100.00;99564.34;4879812;29;20510;-80
2022/11/23 00:19:21;;;;;;;25.17;17.08;;;;;;;6.08;100.00;99560.84;4897687;29;20056;-82
2022/11/23 00:21:49;;;;;;;26.00;18.08;;;;;;;6.08;100.00;99567.81;4880364;29;20049;-82
2022/11/23 00:24:18;;;;;;;23.00;18.20;;;;;;;6.09;100.00;99561.69;4874389;29;20474;-80
2022/11/23 00:26:46;;;;;;;22.63;18.80;;;;;;;6.09;100.00;99564.31;4893252;29;20053;-81
2022/11/23 00:29:15;;;;;;;24.58;18.52;;;;;;;6.09;100.00;99573.06;4858763;29;20048;-82
2022/11/23 00:31:44;;;;;;;24.00;18.83;;;;;;;6.11;100.00;99570.44;4886310;29;20059;-81
2022/11/23 00:34:14;;;;;;;23.85;17.88;;;;;;;6.12;100.00;99572.19;4882407;29;20044;-82
2022/11/23 00:36:43;;;;;;;26.35;19.10;;;;;;;6.11;100.00;99566.06;4880643;29;20059;-81
2022/11/23 00:39:11;;;;;;;23.10;18.08;;;;;;;6.13;100.00;99566.94;4885846;29;20052;-82
2022/11/23 00:41:41;;;;;;;26.52;18.35;;;;;;;6.12;100.00;99562.56;4893631;29;20048;-81
2022/11/23 00:44:10;;;;;;;21.80;18.63;;;;;;;6.14;100.00;99570.44;4880354;29;20041;-82
2022/11/23 00:46:40;;;;;;;26.15;18.65;;;;;;;6.15;100.00;99562.59;4882789;29;20051;-81
2022/11/23 00:49:08;;;;;;;24.48;18.17;;;;;;;6.17;100.00;99570.44;4888656;29;20044;-82
2022/11/23 00:51:37;;;;;;;28.17;20.02;;;;;;;6.16;100.00;99566.97;4882415;29;20048;-81
2022/11/23 00:54:06;;;;;;;26.15;19.77;;;;;;;6.17;100.00;99566.06;4885638;29;20040;-81
2022/11/23 00:56:35;;;;;;;25.08;18.60;;;;;;;6.18;100.00;99566.94;4886175;29;20064;-81
2022/11/23 00:59:03;;;;;;;22.67;18.23;;;;;;;6.19;100.00;99573.94;4881106;29;20063;-81
2022/11/23 01:01:35;;;;;;;26.90;18.75;;;;;;;6.21;100.00;99572.19;4857101;29;20059;-81
2022/11/23 01:04:06;;;;;;;26.05;18.92;;;;;;;6.21;100.00;99572.19;4895410;29;20536;-82
2022/11/23 01:06:37;;;;;;;27.33;19.65;;;;;;;6.22;100.00;99574.81;4886032;29;20759;-82
2022/11/23 01:09:16;;;;;;;23.02;18.92;;;;;;;6.22;100.00;99566.97;4883109;29;20052;-81
2022/11/23 01:11:45;;;;;;;25.23;19.92;;;;;;;6.23;100.00;99570.44;4901732;29;20044;-82
2022/11/23 01:14:13;;;;;;;25.70;19.48;;;;;;;6.25;100.00;99573.94;4867942;29;20051;-82
2022/11/23 01:16:42;;;;;;;24.45;19.33;;;;;;;6.25;100.00;99573.94;4857737;29;20044;-81
2022/11/23 01:19:14;;;;;;;27.95;20.55;;;;;;;6.25;100.00;99580.03;4910714;29;20036;-81
2022/11/23 01:21:42;;;;;;;;;;;;;;;6.25;100.00;99580.03;4885229;29;20056;-79
2022/11/23 01:24:19;;;;;;;24.30;19.30;;;;;;;6.24;100.00;99577.44;4885667;29;19923;-80
2022/11/23 01:26:52;;;;;;;27.92;22.13;;;;;;;6.24;100.00;99577.44;4892797;29;20052;-81
2022/11/23 01:29:23;;;;;;;27.73;20.73;;;;;;;6.27;100.00;99584.41;4895595;29;20055;-81
2022/11/23 01:31:52;;;;;;;30.85;21.77;;;;;;;6.24;100.00;99567.81;4877278;29;20051;-80
2022/11/23 01:34:23;;;;;;;28.98;21.20;;;;;;;6.27;100.00;99581.78;4883402;29;20386;-81
2022/11/23 01:36:52;;;;;;;27.33;21.23;;;;;;;6.28;100.00;99579.16;4885925;29;20056;-81
2022/11/23 01:39:24;;;;;;;29.75;21.55;;;;;;;6.30;100.00;99584.41;4894389;29;20422;-81
2022/11/23 01:41:52;;;;;;;30.83;21.60;;;;;;;6.30;100.00;99585.28;4893297;29;20056;-81
2022/11/23 01:44:27;;;;;;;26.67;20.52;;;;;;;6.31;100.00;99587.00;4882074;29;20050;-80
2022/11/23 01:47:02;;;;;;;29.33;22.00;;;;;;;6.32;100.00;99585.28;4886553;29;20053;-81
2022/11/23 01:49:37;;;;;;;31.80;23.27;;;;;;;6.34;100.00;99596.63;4906557;29;20053;-81
2022/11/23 01:52:19;;;;;;;27.58;20.65;;;;;;;6.34;100.00;99576.53;4884759;29;20047;-80
2022/11/23 01:54:57;;;;;;;31.77;23.35;;;;;;;6.36;100.00;99584.41;4884734;29;20041;-81
2022/11/23 01:57:40;;;;;;;28.00;20.05;;;;;;;6.37;100.00;99578.28;4879269;29;20526;-80
2022/11/23 02:00:09;;;;;;;30.85;23.08;;;;;;;6.38;100.00;99590.50;4873264;29;20060;-82
2022/11/23 02:02:46;;;;;;;30.00;21.98;;;;;;;6.40;100.00;99594.00;4871652;29;20060;-80
2022/11/23 02:05:21;;;;;;;29.92;21.27;;;;;;;6.40;100.00;99594.00;4877971;29;20056;-81
2022/11/23 02:07:53;;;;;;;30.42;22.33;;;;;;;6.40;100.00;99594.84;4897346;29;20044;-80
2022/11/23 02:10:22;;;;;;;30.90;22.15;;;;;;;6.42;100.00;99592.25;4884708;29;20055;-81
2022/11/23 02:12:52;;;;;;;29.90;21.25;;;;;;;6.42;100.00;99593.09;4878262;29;20056;-82
2022/11/23 02:15:21;;;;;;;30.27;21.83;;;;;;;6.43;100.00;99583.53;4879969;29;20053;-81
2022/11/23 02:17:50;;;;;;;28.20;21.88;;;;;;;6.44;100.00;99578.28;4886204;29;20056;-80
2022/11/23 02:20:19;;;;;;;32.92;21.42;;;;;;;6.45;100.00;99584.41;4878967;29;20574;-82
2022/11/23 02:23:02;;;;;;;30.63;21.05;;;;;;;6.45;100.00;99592.25;4874178;29;20055;-81
2022/11/23 02:25:33;;;;;;;32.72;21.58;;;;;;;6.47;100.00;99587.88;4886852;29;20060;-81
2022/11/23 02:28:02;;;;;;;31.58;21.90;;;;;;;6.47;100.00;99589.66;4908907;29;20406;-81
2022/11/23 02:30:31;;;;;;;30.75;21.23;;;;;;;6.48;100.00;99592.22;4880880;29;20061;-81
2022/11/23 02:33:03;;;;;;;29.05;22.08;;;;;;;6.47;100.00;99585.28;4877868;29;20041;-81
2022/11/23 02:35:33;;;;;;;29.70;21.77;;;;;;;6.48;100.00;99594.84;4895163;29;20510;-81
2022/11/23 02:38:05;;;;;;;32.00;23.83;;;;;;;6.49;100.00;99594.00;4870292;29;20048;-81
2022/11/23 02:40:35;;;;;;;33.85;23.00;;;;;;;6.48;100.00;99592.22;4865882;29;20048;-82
2022/11/23 02:43:04;;;;;;;32.30;22.25;;;;;;;6.49;100.00;99596.59;4889220;29;20045;-80
2022/11/23 02:46:00;;;;;;;30.95;22.25;;;;;;;6.49;100.00;99596.59;4883159;29;20033;-81
2022/11/23 02:48:29;;;;;;;28.67;21.77;;;;;;;6.50;100.00;99593.09;4857249;29;20060;-82
2022/11/23 02:50:57;;;;;;;34.72;22.20;;;;;;;6.50;100.00;99590.47;4894915;29;20060;-81
2022/11/23 02:53:25;;;;;;;32.40;22.13;;;;;;;6.51;100.00;99607.09;4887371;29;20071;-81
2022/11/23 02:55:54;;;;;;;34.28;21.60;;;;;;;6.50;100.00;99600.94;4884776;29;20048;-80
2022/11/23 02:58:24;;;;;;;32.35;23.05;;;;;;;6.52;100.00;99593.09;4875873;29;20048;-81
2022/11/23 03:00:53;;;;;;;31.25;22.25;;;;;;;6.52;100.00;99595.72;4885489;29;20518;-80
2022/11/23 03:03:22;;;;;;;29.27;22.58;;;;;;;6.54;100.00;99609.69;4888362;29;20413;-82
2022/11/23 03:05:51;;;;;;;29.15;21.83;;;;;;;6.53;100.00;99595.72;4895673;29;20041;-81
2022/11/23 03:08:20;;;;;;;35.08;22.27;;;;;;;6.54;100.00;99596.59;4870519;29;20049;-81
2022/11/23 03:10:48;;;;;;;29.80;21.42;;;;;;;6.54;100.00;99597.50;4912241;29;20044;-80
2022/11/23 03:13:19;;;;;;;32.65;22.27;;;;;;;6.54;100.00;99597.50;4887507;29;20041;-81
2022/11/23 03:15:47;;;;;;;40.30;22.77;;;;;;;6.55;100.00;99596.59;4882324;29;20056;-80
2022/11/23 03:18:15;;;;;;;34.30;22.48;;;;;;;6.55;100.00;99601.84;4896376;29;20072;-81
2022/11/23 03:20:44;;;;;;;30.85;21.83;;;;;;;6.56;100.00;99597.47;4871014;29;20427;-80
2022/11/23 03:23:12;;;;;;;37.67;23.52;;;;;;;6.56;100.00;99606.22;4902379;29;20465;-80
2022/11/23 03:25:41;;;;;;;31.90;23.70;;;;;;;6.56;100.00;99595.75;4889965;29;20426;-80
2022/11/23 03:28:09;;;;;;;34.42;22.60;;;;;;;6.57;100.00;99605.31;4869628;29;20064;-81
2022/11/23 03:30:38;;;;;;;33.53;22.08;;;;;;;6.57;100.00;99599.22;4883705;29;20051;-81
2022/11/23 03:33:07;;;;;;;30.85;21.60;;;;;;;6.58;100.00;99604.47;4899425;29;20501;-80
2022/11/23 03:35:37;;;;;;;32.17;22.48;;;;;;;6.58;100.00;99609.69;4900661;29;20037;-80
2022/11/23 03:38:31;;;;;;;34.22;22.58;;;;;;;6.59;100.00;99610.56;4911389;29;20061;-80
2022/11/23 03:41:09;;;;;;;31.88;22.27;;;;;;;6.58;100.00;99614.94;4870362;29;20052;-81
2022/11/23 03:43:53;;;;;;;36.00;24.25;;;;;;;6.59;100.00;99616.66;4873377;29;20036;-80
2022/11/23 03:46:23;;;;;;;23.30;17.90;;;;;;;6.59;100.00;99618.41;4897148;29;20052;-80
2022/11/23 03:48:51;;;;;;;35.17;22.35;;;;;;;6.60;100.00;99617.56;4898220;29;20040;-80
2022/11/23 03:51:21;;;;;;;32.50;23.27;;;;;;;6.59;100.00;99611.41;4881828;29;20044;-80
2022/11/23 03:53:53;;;;;;;31.40;22.65;;;;;;;6.60;100.00;99623.66;4872796;29;20044;-79
2022/11/23 03:56:22;;;;;;;29.52;22.00;;;;;;;6.60;100.00;99621.03;4886147;29;20050;-80
2022/11/23 03:58:50;;;;;;;24.67;19.63;;;;;;;6.61;100.00;99624.50;4881916;29;20053;-80
2022/11/23 04:01:19;;;;;;;31.05;21.33;;;;;;;6.62;100.00;99627.13;4864915;29;20060;-80
2022/11/23 04:03:52;;;;;;;28.17;21.58;;;;;;;6.62;100.00;99621.91;4882844;29;20041;-80
2022/11/23 04:06:43;;;;;;;30.67;21.65;;;;;;;6.63;100.00;99626.28;4897378;29;20044;-79
2022/11/23 04:09:21;;;;;;;30.17;20.90;;;;;;;6.64;100.00;99628.00;4863275;29;20159;-81
2022/11/23 04:12:13;;;;;;;30.17;20.02;;;;;;;6.64;100.00;99621.91;4883121;29;20072;-79
2022/11/23 04:14:45;;;;;;;29.88;20.85;;;;;;;6.66;100.00;99628.00;4872206;29;20045;-80
2022/11/23 04:17:13;;;;;;;31.00;21.00;;;;;;;6.68;100.00;99626.25;4885451;29;20048;-79
2022/11/23 04:19:42;;;;;;;29.02;21.38;;;;;;;6.69;100.00;99624.50;4871019;29;20053;-79
2022/11/23 04:22:11;;;;;;;27.67;20.00;;;;;;;6.69;100.00;99622.78;4899516;29;20048;-80
2022/11/23 04:24:42;;;;;;;25.98;18.75;;;;;;;6.69;100.00;99624.50;4876017;29;20051;-79
2022/11/23 04:27:11;;;;;;;30.33;20.13;;;;;;;6.67;100.00;99623.63;4870599;29;20247;-80
2022/11/23 04:29:40;;;;;;;31.50;20.20;;;;;;;6.64;100.00;99620.16;4870391;29;20051;-80
2022/11/23 04:32:11;;;;;;;34.08;19.75;;;;;;;6.63;100.00;99625.38;4889784;29;20049;-81
2022/11/23 04:34:40;;;;;;;27.48;19.42;;;;;;;6.60;100.00;99626.28;4880004;29;20044;-79
2022/11/23 04:37:11;;;;;;;33.70;20.98;;;;;;;6.57;100.00;99618.41;4892119;29;20040;-81
2022/11/23 04:39:43;;;;;;;31.27;20.08;;;;;;;6.55;100.00;99614.91;4864588;29;20059;-79
2022/11/23 04:42:20;;;;;;;32.95;20.80;;;;;;;6.53;100.00;99621.03;4864154;29;20059;-80
2022/11/23 04:44:56;;;;;;;32.08;21.70;;;;;;;6.50;100.00;99616.66;4871324;29;20061;-79
2022/11/23 04:47:25;;;;;;;32.90;21.40;;;;;;;6.50;100.00;99623.66;4892065;29;20446;-80
2022/11/23 04:49:56;;;;;;;34.25;21.23;;;;;;;6.48;100.00;99617.53;4878878;29;20041;-79
2022/11/23 04:52:24;;;;;;;31.40;20.80;;;;;;;6.45;100.00;99621.03;4878391;29;20041;-80
2022/11/23 04:54:53;;;;;;;36.28;21.92;;;;;;;6.43;100.00;99621.03;4874029;29;20049;-79
2022/11/23 04:57:22;;;;;;;32.20;20.63;;;;;;;6.41;100.00;99620.16;4888761;29;20035;-80
2022/11/23 04:59:52;;;;;;;34.40;22.10;;;;;;;6.41;100.00;99625.41;4869026;29;20032;-80
2022/11/23 05:02:23;;;;;;;36.63;22.83;;;;;;;6.43;100.00;99625.41;4879257;29;20064;-80
2022/11/23 05:04:58;;;;;;;27.33;20.27;;;;;;;6.44;100.00;99627.13;4878780;29;20517;-80
2022/11/23 05:07:30;;;;;;;31.20;20.45;;;;;;;6.46;100.00;99635.00;4873008;29;20047;-80
2022/11/23 05:10:03;;;;;;;30.70;20.80;;;;;;;6.47;100.00;99640.22;4908708;29;20052;-79
2022/11/23 05:12:35;;;;;;;38.85;20.90;;;;;;;6.48;100.00;99634.09;4870259;29;20047;-79
2022/11/23 05:15:05;;;;;;;35.40;21.10;;;;;;;6.50;100.00;99642.81;4844113;29;20048;-79
2022/11/23 05:17:41;;;;;;;31.75;20.48;;;;;;;6.51;100.00;99638.50;4875563;29;20071;-80
2022/11/23 05:20:16;;;;;;;36.50;19.42;;;;;;;6.53;100.00;99636.75;4877556;29;20049;-80
2022/11/23 05:22:48;;;;;;;31.40;20.63;;;;;;;6.53;100.00;99640.22;4874955;29;20037;-79
2022/11/23 05:25:25;;;;;;;32.20;19.35;;;;;;;6.54;100.00;99636.75;4879646;29;20506;-81
2022/11/23 05:28:03;;;;;;;120.90;69.13;;;;;;;6.55;100.00;99641.09;4869638;29;20374;-80
2022/11/23 05:30:54;;;;;;;31.20;19.67;;;;;;;6.55;100.00;99630.63;4873576;29;20052;-79
2022/11/23 05:33:22;;;;;;;38.80;21.02;;;;;;;6.57;100.00;99639.34;4889754;29;20044;-82
2022/11/23 05:35:51;;;;;;;30.77;20.60;;;;;;;6.59;100.00;99645.44;4893447;29;20049;-78
2022/11/23 05:38:28;;;;;;;31.35;19.10;;;;;;;6.60;100.00;99648.97;4885154;29;20067;-82
2022/11/23 05:41:01;;;;;;;38.25;20.02;;;;;;;6.60;100.00;99644.59;4878314;29;20045;-80
2022/11/23 05:43:29;;;;;;;32.95;19.67;;;;;;;6.60;100.00;99638.50;4886510;29;20044;-80
2022/11/23 05:45:59;;;;;;;36.70;20.30;;;;;;;6.62;100.00;99652.44;4882815;29;20036;-81
2022/11/23 05:48:29;;;;;;;33.88;19.80;;;;;;;6.63;100.00;99643.72;4878435;29;20053;-81
2022/11/23 05:50:58;;;;;;;32.45;19.23;;;;;;;6.63;100.00;99648.94;4897186;29;20531;-80
2022/11/23 05:53:40;;;;;;;39.03;21.50;;;;;;;6.64;100.00;99643.72;4891265;29;20498;-80
2022/11/23 05:56:24;;;;;;;37.00;21.63;;;;;;;6.64;100.00;99645.47;4895258;29;20048;-80
2022/11/23 05:59:10;;;;;;;37.35;21.80;;;;;;;6.65;100.00;99644.56;4856608;29;20040;-80
2022/11/23 06:01:41;;;;;;;37.25;20.10;;;;;;;6.66;100.00;99645.47;4899335;29;20406;-81
2022/11/23 06:04:12;;;;;;;40.45;21.80;;;;;;;6.67;100.00;99650.69;4882738;29;20049;-80
2022/11/23 06:06:45;;;;;;;37.63;22.63;;;;;;;6.69;100.00;99648.06;4898692;29;20033;-81
2022/11/23 06:09:13;;;;;;;41.55;21.30;;;;;;;6.70;100.00;99647.22;4872239;29;20051;-81
2022/11/23 06:11:47;;;;;;;35.28;21.45;;;;;;;6.71;100.00;99649.84;4893991;29;20040;-80
2022/11/23 06:14:19;;;;;;;41.45;21.55;;;;;;;6.73;100.00;99652.44;4872582;29;20057;-81
2022/11/23 06:16:50;;;;;;;38.97;21.38;;;;;;;6.75;100.00;99658.56;4897042;29;20053;-80
2022/11/23 06:19:38;;;;;;;37.17;21.58;;;;;;;6.76;100.00;99658.53;4870023;29;20048;-81
2022/11/23 06:22:08;;;;;;;37.05;20.95;;;;;;;6.78;100.00;99655.94;4865721;29;20060;-80
2022/11/23 06:24:45;;;;;;;41.63;20.65;;;;;;;6.80;100.00;99656.78;4878578;29;20048;-80
2022/11/23 06:27:39;;;;;;;40.42;20.73;;;;;;;6.81;100.00;99648.94;4896658;29;20037;-81
2022/11/23 06:30:15;;;;;;;35.10;20.92;;;;;;;6.84;100.00;99653.28;4868741;29;20052;-80
2022/11/23 06:32:45;;;;;;;36.20;20.60;;;;;;;6.85;100.00;99660.28;4871571;29;20064;-81
2022/11/23 06:35:13;;;;;;;40.20;21.45;;;;;;;6.86;100.00;99663.78;4882824;29;20071;-81
2022/11/23 06:37:44;;;;;;;37.13;21.15;;;;;;;6.86;100.00;99664.63;4881659;29;20044;-81
2022/11/23 06:40:12;;;;;;;34.75;20.35;;;;;;;6.86;100.00;99667.25;4884453;29;20048;-80
2022/11/23 06:42:43;;;;;;;32.42;19.63;;;;;;;6.86;100.00;99667.25;4888206;29;20067;-81
2022/11/23 06:45:22;;;;;;;32.42;19.23;;;;;;;6.86;100.00;99677.72;4865529;29;20060;-78
2022/11/23 06:47:55;;;;;;;30.10;18.83;;;;;;;6.87;100.00;99682.09;4875314;29;20040;-79
2022/11/23 06:50:25;;;;;;;29.90;17.85;;;;;;;6.85;100.00;99676.00;4872141;29;20052;-79
2022/11/23 06:53:01;;;;;;;30.90;17.77;;;;;;;6.86;100.00;99675.13;4886198;29;20040;-79
2022/11/23 06:55:41;;;;;;;35.70;18.75;;;;;;;6.86;100.00;99682.09;4878443;29;20045;-81
2022/11/23 06:58:12;;;;;;;31.58;18.17;;;;;;;6.86;100.00;99672.50;4895715;29;20052;-80
2022/11/23 07:00:41;;;;;;;33.95;17.30;;;;;;;6.85;100.00;99689.09;4878547;29;20036;-80
2022/11/23 07:03:23;;;;;;;27.77;17.08;;;;;;;6.84;100.00;99689.97;4882092;29;20044;-80
2022/11/23 07:06:06;;;;;;;27.90;16.52;;;;;;;6.83;100.00;99688.22;4878807;29;20534;-79
2022/11/23 07:08:42;;;;;;;27.58;16.50;;;;;;;6.82;100.00;99691.72;4891492;29;20037;-80
2022/11/23 07:11:33;;;;;;;23.20;14.88;;;;;;;6.80;100.00;99694.31;4890659;29;20063;-79
2022/11/23 07:14:01;;;;;;;25.40;15.27;;;;;;;6.80;100.00;99688.22;4899668;29;20048;-79
2022/11/23 07:16:31;;;;;;;24.92;15.27;;;;;;;6.79;100.00;99694.34;4875357;29;20048;-79
2022/11/23 07:18:59;;;;;;;30.23;14.68;;;;;;;6.79;100.00;99703.06;4879964;29;20052;-80
2022/11/23 07:21:28;;;;;;;22.77;13.80;;;;;;;6.79;100.00;99707.44;4884342;29;20514;-80
2022/11/23 07:23:56;;;;;;;22.98;13.15;;;;;;;6.80;100.00;99701.31;4869084;29;20049;-79
2022/11/23 07:26:24;;;;;;;27.50;13.35;;;;;;;6.79;100.00;99707.44;4891262;29;20048;-80
2022/11/23 07:28:53;;;;;;;24.80;13.10;;;;;;;6.78;100.00;99710.91;4877453;29;20047;-79
2022/11/23 07:31:22;;;;;;;20.73;13.13;;;;;;;6.78;100.00;99708.28;4887068;29;24901;-80
2022/11/23 07:33:51;;;;;;;26.08;12.15;;;;;;;6.77;100.00;99719.66;4870004;29;20055;-79
2022/11/23 07:36:21;;;;;;;22.95;11.90;;;;;;;6.76;100.00;99717.91;4882280;29;20079;-80
2022/11/23 07:38:49;;;;;;;22.65;12.50;;;;;;;6.75;100.00;99724.03;4878915;29;20040;-80
2022/11/23 07:41:20;;;;;;;20.85;12.07;;;;;;;6.75;100.00;99727.50;4874113;29;20052;-80
2022/11/23 07:44:09;;;;;;;23.77;13.02;;;;;;;6.75;100.00;99729.25;4879895;29;20044;-80
2022/11/23 07:46:38;;;;;;;25.95;11.30;;;;;;;6.74;100.00;99724.88;4876663;29;20053;-80
2022/11/23 07:49:06;;;;;;;21.75;11.65;;;;;;;6.75;100.00;99737.13;4866286;29;20502;-80
2022/11/23 07:51:35;;;;;;;22.30;12.73;;;;;;;6.75;100.00;99732.75;4900374;29;20057;-80
2022/11/23 07:54:03;;;;;;;24.02;12.80;;;;;;;6.77;100.00;99735.38;4879331;29;20044;-80
2022/11/23 07:56:31;;;;;;;23.33;12.77;;;;;;;6.77;100.00;99744.09;4893049;29;20055;-79
2022/11/23 07:59:00;;;;;;;18.95;12.63;;;;;;;6.78;100.00;99744.94;4898568;29;20044;-80
2022/11/23 08:01:30;;;;;;;20.17;10.73;;;;;;;6.78;100.00;99742.34;4891576;29;20063;-79
2022/11/23 08:03:58;;;;;;;23.47;10.60;;;;;;;6.78;100.00;99743.19;4863495;29;20044;-80
2022/11/23 08:06:27;;;;;;;20.73;10.88;;;;;;;6.80;100.00;99735.34;4877636;29;20048;-80
2022/11/23 08:08:56;;;;;;;21.30;9.73;;;;;;;6.81;100.00;99748.44;4887765;29;20043;-80
2022/11/23 08:11:24;;;;;;;18.33;10.20;;;;;;;6.83;100.00;99748.47;4878888;29;20051;-80
2022/11/23 08:13:53;;;;;;;20.40;9.85;;;;;;;6.85;100.00;99756.31;4893554;29;20406;-80
2022/11/23 08:16:22;;;;;;;18.65;9.80;;;;;;;6.85;100.00;99754.56;4867886;29;20414;-80
2022/11/23 08:18:50;;;;;;;18.17;8.88;;;;;;;6.86;100.00;99748.44;4863486;29;20033;-79
2022/11/23 08:21:19;;;;;;;20.42;9.02;;;;;;;6.86;100.00;99748.44;4882661;29;20066;-80
2022/11/23 08:23:47;;;;;;;22.25;9.30;;;;;;;6.87;100.00;99752.81;4875895;29;20047;-79
2022/11/23 08:26:16;;;;;;;18.00;8.75;;;;;;;6.88;100.00;99754.59;4865214;29;20095;-80
2022/11/23 08:28:44;;;;;;;18.63;8.85;;;;;;;6.88;100.00;99751.97;4877749;29;20044;-79
2022/11/23 08:31:13;;;;;;;15.10;8.10;;;;;;;6.89;100.00;99756.31;4883449;29;20430;-80
2022/11/23 08:33:43;;;;;;;17.38;7.75;;;;;;;6.91;100.00;99765.03;4891563;29;20044;-80
2022/11/23 08:36:12;;;;;;;24.73;8.13;;;;;;;6.92;100.00;99750.19;4863725;29;20041;-81
2022/11/23 08:38:40;;;;;;;22.58;7.60;;;;;;;6.93;100.00;99758.06;4900542;29;20048;-80
2022/11/23 08:41:09;;;;;;;25.60;9.02;;;;;;;6.95;100.00;99758.06;4878965;29;20067;-80
2022/11/23 08:43:37;;;;;;;11.32;7.03;;;;;;;6.95;100.00;99761.53;4899704;29;21157;-80
2022/11/23 08:46:06;;;;;;;19.30;7.50;;;;;;;6.97;100.00;99764.16;4892158;29;20045;-79
2022/11/23 08:48:38;;;;;;;17.15;7.70;;;;;;;6.98;100.00;99755.44;4886490;29;20048;-79
2022/11/23 08:51:08;;;;;;;16.30;6.95;;;;;;;7.00;100.00;99753.69;4882839;29;20051;-80
2022/11/23 08:53:37;;;;;;;19.63;7.55;;;;;;;7.03;100.00;99751.97;4888390;29;20052;-79
2022/11/23 08:56:06;;;;;;;14.38;6.78;;;;;;;7.06;100.00;99758.94;4889174;29;20057;-80
2022/11/23 08:58:35;;;;;;;24.65;7.65;;;;;;;7.10;100.00;99757.19;4881129;29;20040;-81
2022/11/23 09:01:13;;;;;;;18.02;7.35;;;;;;;7.13;100.00;99758.06;4889815;29;20446;-79
2022/11/23 09:03:44;;;;;;;15.25;6.90;;;;;;;7.15;100.00;99752.84;4901609;29;20435;-81
2022/11/23 09:06:12;;;;;;;16.15;6.57;;;;;;;7.16;100.00;99760.66;4868353;29;20800;-79
2022/11/23 09:08:41;;;;;;;15.02;6.15;;;;;;;7.19;100.00;99770.28;4894277;29;20049;-79
2022/11/23 09:11:12;;;;;;;15.55;6.15;;;;;;;7.22;100.00;99754.56;4874820;29;20048;-78
2022/11/23 09:13:40;;;;;;;15.63;6.70;;;;;;;7.27;100.00;99760.66;4891130;29;20049;-81
2022/11/23 09:16:09;;;;;;;13.95;5.95;;;;;;;7.32;100.00;99756.31;4883572;29;20842;-78
2022/11/23 09:18:37;;;;;;;14.27;5.85;;;;;;;7.37;100.00;99759.81;4903779;29;20499;-81
2022/11/23 09:21:06;;;;;;;18.60;7.18;;;;;;;7.41;100.00;99752.81;4843139;29;20071;-79
2022/11/23 09:23:35;;;;;;;20.67;6.43;;;;;;;7.40;100.00;99744.06;4897416;29;20056;-80
2022/11/23 09:26:04;;;;;;;21.33;6.30;;;;;;;7.41;100.00;99751.06;4883729;29;20887;-80
2022/11/23 09:28:32;;;;;;;15.93;6.30;;;;;;;7.41;100.00;99752.81;4888153;29;20053;-79
2022/11/23 09:31:03;;;;;;;20.30;6.03;;;;;;;7.40;100.00;99749.28;4902188;29;20079;-80
2022/11/23 09:33:32;;;;;;;18.27;6.63;;;;;;;7.40;100.00;99762.41;4885976;29;20066;-79
2022/11/23 09:36:03;;;;;;;16.77;5.93;;;;;;;7.40;100.00;99757.16;4890046;29;20048;-79
2022/11/23 09:38:31;;;;;;;14.77;6.93;;;;;;;7.40;100.00;99761.53;4868828;29;20130;-80
2022/11/23 09:41:20;;;;;;;15.05;5.93;;;;;;;7.39;100.00;99757.16;4882824;29;20048;-80
2022/11/23 09:44:15;;;;;;;14.43;6.05;;;;;;;7.41;100.00;99768.53;4880677;29;20037;-79
2022/11/23 09:47:02;;;;;;;14.00;6.53;;;;;;;7.43;100.00;99766.78;4891619;29;20045;-79
2022/11/23 09:49:50;;;;;;;14.85;5.72;;;;;;;7.47;100.00;99770.28;4881852;29;20044;-80
2022/11/23 09:52:23;;;;;;;17.00;6.80;;;;;;;7.48;100.00;99772.88;4908523;29;20502;-79
2022/11/23 09:54:55;;;;;;;16.83;5.72;;;;;;;7.51;100.00;99766.78;4870959;29;20510;-79
2022/11/23 09:57:30;;;;;;;15.48;6.82;;;;;;;7.55;100.00;99773.75;4884128;29;20048;-79
2022/11/23 10:00:03;;;;;;;12.38;6.00;;;;;;;7.58;100.00;99773.72;4869384;29;20051;-80
2022/11/23 10:02:38;;;;;;;9.52;5.28;;;;;;;7.64;100.00;99762.34;4880711;29;20068;-79
2022/11/23 10:05:15;;;;;;;10.82;4.78;;;;;;;7.71;100.00;99770.22;4900301;29;20036;-80
2022/11/23 10:08:15;;;;;;;18.42;5.95;;;;;;;7.78;100.00;99771.94;4871025;29;20056;-79
2022/11/23 10:10:57;;;;;;;13.83;6.20;;;;;;;7.85;100.00;99764.94;4859887;29;20037;-79
2022/11/23 10:13:53;;;;;;;15.98;6.43;;;;;;;7.91;100.00;99772.78;4884935;29;20410;-81
2022/11/23 10:16:36;;;;;;;17.08;5.55;;;;;;;7.95;100.00;99774.50;4913684;29;20055;-80
2022/11/23 10:19:25;;;;;;;12.68;5.10;;;;;;;7.99;100.00;99770.13;4885401;29;20060;-81
2022/11/23 10:22:15;;;;;;;17.08;5.05;;;;;;;8.00;100.00;99762.25;4890540;29;20044;-79
2022/11/23 10:24:49;;;;;;;13.97;4.60;;;;;;;8.02;100.00;99764.88;4884695;29;20430;-79
2022/11/23 10:27:21;;;;;;;9.68;4.57;;;;;;;8.03;100.00;99756.13;4892655;29;20812;-79
2022/11/23 10:29:53;;;;;;;12.18;4.88;;;;;;;8.04;100.00;99754.38;4879936;29;20068;-79
2022/11/23 10:32:37;;;;;;;11.07;4.53;;;;;;;8.08;100.00;99749.09;4898730;29;20405;-82
2022/11/23 10:35:15;;;;;;;15.43;5.25;;;;;;;8.11;100.00;99749.09;4890814;29;20056;-81
2022/11/23 10:37:43;;;;;;;11.73;4.97;;;;;;;8.17;100.00;99743.81;4908828;29;20758;-80
2022/11/23 10:40:17;;;;;;;9.63;4.25;;;;;;;8.19;100.00;99749.94;4876178;29;26366;-80
2022/11/23 10:43:00;;;;;;;17.05;5.57;;;;;;;8.24;100.00;99744.69;4897289;29;20410;-80
2022/11/23 10:45:28;;;;;;;16.27;5.65;;;;;;;8.25;100.00;99737.66;4890807;29;20045;-81
2022/11/23 10:47:59;;;;;;;19.75;6.07;;;;;;;8.25;100.00;99741.16;4899874;29;20052;-80
2022/11/23 10:50:36;;;;;;;22.88;7.05;;;;;;;8.27;100.00;99743.78;4900784;29;20036;-81
2022/11/23 10:53:04;;;;;;;13.80;5.80;;;;;;;8.26;100.00;99737.66;4908708;29;20045;-80
2022/11/23 10:55:46;;;;;;;14.20;5.55;;;;;;;8.28;100.00;99754.28;4861006;29;20048;-82
2022/11/23 10:58:44;;;;;;;15.13;5.70;;;;;;;8.28;100.00;99740.25;4912898;29;20520;-83
2022/11/23 11:01:14;;;;;;;16.67;5.82;;;;;;;8.27;100.00;99744.66;4884631;29;20067;-79
2022/11/23 11:03:42;;;;;;;15.10;4.83;;;;;;;8.27;100.00;99749.03;4906980;29;20477;-78
2022/11/23 11:06:21;;;;;;;17.40;6.25;;;;;;;8.27;100.00;99752.53;4906909;29;20060;-80
2022/11/23 11:08:53;;;;;;;11.27;4.95;;;;;;;8.27;100.00;99751.66;4896439;29;20056;-81
2022/11/23 11:11:36;;;;;;;13.93;5.75;;;;;;;8.24;100.00;99749.03;4890119;29;20510;-82
2022/11/23 11:14:15;;;;;;;12.10;3.75;;;;;;;8.20;100.00;99742.91;4882904;29;20059;-81
2022/11/23 11:16:50;;;;;;;9.50;3.63;;;;;;;8.18;100.00;99745.59;4895924;29;20506;-80
2022/11/23 11:19:29;;;;;;;12.98;4.05;;;;;;;8.18;100.00;99740.34;4915558;29;20068;-81
2022/11/23 11:22:22;;;;;;;12.40;4.15;;;;;;;8.19;100.00;99741.19;4882254;29;20032;-81
2022/11/23 11:24:50;;;;;;;10.15;3.33;;;;;;;8.18;100.00;99740.34;4919913;29;20083;-81
2022/11/23 11:27:25;;;;;;;10.23;3.65;;;;;;;8.17;100.00;99733.31;4863717;29;20059;-81
2022/11/23 11:30:05;;;;;;;7.50;2.72;;;;;;;8.15;100.00;99729.84;4882543;29;20595;-82
2022/11/23 11:33:13;;;;;;;9.88;2.85;;;;;;;8.17;100.00;99729.84;4905520;29;20036;-82
2022/11/23 11:35:46;;;;;;;13.35;4.28;;;;;;;8.18;100.00;99719.34;4887869;29;20052;-81
2022/11/23 11:38:34;;;;;;;18.52;3.78;;;;;;;8.20;100.00;99720.19;4900453;29;20063;-82
2022/11/23 11:41:08;;;;;;;14.98;3.55;;;;;;;8.21;100.00;99721.06;4907120;29;20079;-81
2022/11/23 11:43:39;;;;;;;13.05;3.05;;;;;;;8.22;100.00;99717.53;4873640;29;20044;-81
2022/11/23 11:46:15;;;;;;;;;;;;;;;8.23;100.00;99715.81;4892231;29;20047;-80